createdAt,value
2023-02-04T00:00:17.162Z,45.69
2023-02-04T00:02:44.065Z,45.42
2023-02-04T00:05:14.536Z,45.82
2023-02-04T00:07:42.373Z,46.36
2023-02-04T00:10:09.903Z,46.38
2023-02-04T00:12:36.725Z,46.40
2023-02-04T00:15:04.585Z,45.53
2023-02-04T00:17:31.541Z,45.73
2023-02-04T00:19:58.314Z,45.45
2023-02-04T00:22:26.567Z,46.69
2023-02-04T00:24:53.493Z,47.06
2023-02-04T00:27:20.223Z,46.33
2023-02-04T00:29:47.157Z,46.47
2023-02-04T00:32:14.005Z,46.35
2023-02-04T00:34:41.408Z,46.11
2023-02-04T00:37:08.326Z,46.38
2023-02-04T00:39:35.050Z,46.47
2023-02-04T00:42:01.970Z,46.67
2023-02-04T00:44:28.761Z,45.99
2023-02-04T00:46:57.426Z,46.57
2023-02-04T00:49:26.278Z,47.71
2023-02-04T00:51:53.068Z,47.30
2023-02-04T00:54:20.111Z,49.67
2023-02-04T00:56:46.878Z,48.40
2023-02-04T00:59:14.015Z,47.82
2023-02-04T01:01:40.950Z,47.21
2023-02-04T01:04:08.053Z,47.34
2023-02-04T01:06:35.417Z,46.84
2023-02-04T01:09:03.937Z,46.33
2023-02-04T01:11:31.687Z,46.74
2023-02-04T01:13:58.562Z,48.93
2023-02-04T01:16:25.585Z,48.46
2023-02-04T01:18:55.778Z,47.51
2023-02-04T01:21:25.221Z,47.18
2023-02-04T01:23:52.393Z,47.18
2023-02-04T01:26:19.969Z,47.00
2023-02-04T01:28:47.343Z,46.85
2023-02-04T01:31:15.301Z,46.54
2023-02-04T01:33:42.552Z,47.28
2023-02-04T01:36:09.669Z,47.42
2023-02-04T01:38:36.545Z,47.44
2023-02-04T01:41:06.116Z,47.49
2023-02-04T01:43:33.943Z,47.13
2023-02-04T01:46:02.585Z,48.01
2023-02-04T01:48:29.956Z,47.25
2023-02-04T01:51:09.210Z,47.14
2023-02-04T01:53:36.769Z,46.86
2023-02-04T01:56:16.093Z,46.67
2023-02-04T01:58:43.504Z,46.93
2023-02-04T02:01:13.877Z,46.58
2023-02-04T02:03:40.966Z,46.99
2023-02-04T02:06:10.763Z,47.73
2023-02-04T02:08:37.976Z,47.87
2023-02-04T02:11:06.407Z,47.11
2023-02-04T02:13:33.316Z,47.41
2023-02-04T02:16:00.028Z,48.49
2023-02-04T02:18:26.994Z,48.77
2023-02-04T02:20:54.889Z,47.08
2023-02-04T02:23:46.609Z,47.28
2023-02-04T02:26:15.268Z,46.88
2023-02-04T02:28:42.686Z,47.69
2023-02-04T02:31:10.178Z,47.88
2023-02-04T02:33:37.195Z,46.78
2023-02-04T02:36:04.577Z,47.45
2023-02-04T02:38:32.524Z,46.60
2023-02-04T02:41:01.829Z,46.90
2023-02-04T02:43:29.308Z,46.67
2023-02-04T02:45:59.603Z,46.35
2023-02-04T02:48:26.973Z,46.47
2023-02-04T02:50:53.975Z,46.38
2023-02-04T02:53:22.034Z,46.06
2023-02-04T02:55:49.501Z,46.57
2023-02-04T02:58:30.080Z,46.46
2023-02-04T03:00:57.694Z,46.33
2023-02-04T03:03:28.996Z,45.93
2023-02-04T03:06:00.537Z,46.24
2023-02-04T03:08:27.835Z,46.32
2023-02-04T03:10:54.752Z,45.89
2023-02-04T03:13:22.631Z,46.35
2023-02-04T03:15:49.891Z,46.20
2023-02-04T03:18:19.601Z,46.38
2023-02-04T03:20:47.652Z,45.89
2023-02-04T03:23:14.565Z,46.43
2023-02-04T03:25:42.409Z,46.49
2023-02-04T03:28:09.806Z,46.24
2023-02-04T03:30:36.815Z,46.42
2023-02-04T03:33:03.874Z,46.80
2023-02-04T03:35:30.674Z,46.80
2023-02-04T03:37:57.652Z,46.61
2023-02-04T03:40:24.475Z,45.82
2023-02-04T03:42:51.357Z,46.06
2023-02-04T03:45:18.194Z,47.03
2023-02-04T03:47:44.925Z,46.66
2023-02-04T03:50:13.289Z,46.19
2023-02-04T03:52:40.217Z,46.96
2023-02-04T03:55:07.378Z,46.25
2023-02-04T03:57:34.241Z,45.81
2023-02-04T04:00:00.964Z,46.11
2023-02-04T04:02:27.820Z,45.72
2023-02-04T04:04:55.610Z,45.87
2023-02-04T04:07:22.374Z,46.11
2023-02-04T04:09:49.179Z,45.40
2023-02-04T04:12:15.942Z,45.92
2023-02-04T04:14:42.924Z,45.85
2023-02-04T04:17:09.817Z,46.17
2023-02-04T04:19:36.690Z,45.43
2023-02-04T04:22:03.385Z,45.82
2023-02-04T04:24:30.188Z,46.26
2023-02-04T04:26:56.903Z,46.05
2023-02-04T04:29:23.883Z,45.97
2023-02-04T04:31:50.695Z,45.52
2023-02-04T04:34:17.807Z,45.62
2023-02-04T04:36:44.610Z,46.05
2023-02-04T04:39:11.402Z,45.71
2023-02-04T04:41:38.201Z,46.00
2023-02-04T04:44:05.089Z,47.01
2023-02-04T04:46:31.870Z,47.12
2023-02-04T04:48:58.789Z,47.04
2023-02-04T04:51:25.575Z,46.53
2023-02-04T04:53:52.532Z,46.34
2023-02-04T04:56:19.299Z,46.45
2023-02-04T04:58:46.214Z,46.37
2023-02-04T05:01:13.087Z,45.91
2023-02-04T05:03:39.835Z,46.20
2023-02-04T05:06:06.553Z,46.31
2023-02-04T05:08:34.949Z,46.48
2023-02-04T05:11:02.842Z,47.04
2023-02-04T05:13:29.645Z,47.18
2023-02-04T05:15:56.605Z,47.12
2023-02-04T05:18:23.613Z,47.85
2023-02-04T05:20:50.301Z,47.84
2023-02-04T05:23:17.301Z,47.87
2023-02-04T05:25:44.017Z,48.68
2023-02-04T05:28:10.893Z,48.46
2023-02-04T05:30:37.715Z,48.86
2023-02-04T05:33:04.573Z,49.38
2023-02-04T05:35:31.389Z,50.77
2023-02-04T05:37:58.138Z,50.33
2023-02-04T05:40:24.881Z,49.88
2023-02-04T05:42:51.845Z,49.83
2023-02-04T05:45:19.183Z,48.89
2023-02-04T05:47:46.352Z,48.53
2023-02-04T05:50:13.069Z,48.29
2023-02-04T05:52:40.523Z,49.52
2023-02-04T05:55:08.823Z,48.37
2023-02-04T05:57:35.739Z,48.15
2023-02-04T06:00:03.184Z,48.64
2023-02-04T06:02:38.655Z,48.74
2023-02-04T06:05:06.012Z,48.24
2023-02-04T06:07:32.904Z,48.10
2023-02-04T06:10:00.498Z,47.16
2023-02-04T06:12:27.489Z,47.26
2023-02-04T06:14:56.050Z,46.88
2023-02-04T06:17:22.871Z,46.17
2023-02-04T06:19:49.589Z,46.85
2023-02-04T06:22:16.348Z,47.91
2023-02-04T06:24:45.165Z,46.68
2023-02-04T06:27:13.300Z,47.42
2023-02-04T06:29:40.119Z,46.23
2023-02-04T06:32:06.790Z,47.45
2023-02-04T06:34:33.537Z,46.89
2023-02-04T06:37:00.417Z,45.70
2023-02-04T06:39:27.244Z,45.58
2023-02-04T06:41:54.066Z,44.76
2023-02-04T06:44:20.873Z,44.33
2023-02-04T06:46:47.864Z,44.75
2023-02-04T06:49:14.695Z,45.21
2023-02-04T06:51:41.550Z,45.18
2023-02-04T06:54:08.477Z,45.05
2023-02-04T06:56:35.228Z,45.60
2023-02-04T06:59:03.510Z,45.27
2023-02-04T07:01:30.391Z,45.70
2023-02-04T07:03:57.263Z,44.45
2023-02-04T07:06:24.096Z,44.17
2023-02-04T07:08:51.137Z,44.41
2023-02-04T07:11:17.899Z,43.51
2023-02-04T07:13:44.694Z,43.54
2023-02-04T07:16:11.478Z,45.45
2023-02-04T07:18:38.296Z,43.99
2023-02-04T07:21:05.238Z,43.76
2023-02-04T07:23:32.027Z,43.00
2023-02-04T07:25:59.570Z,43.42
2023-02-04T07:28:26.473Z,42.84
2023-02-04T07:30:53.485Z,42.44
2023-02-04T07:33:20.185Z,43.20
2023-02-04T07:35:47.199Z,43.23
2023-02-04T07:38:16.524Z,42.58
2023-02-04T07:40:43.362Z,42.27
2023-02-04T07:43:10.146Z,41.23
2023-02-04T07:45:38.901Z,41.53
2023-02-04T07:48:06.053Z,41.23
2023-02-04T07:50:33.201Z,41.29
2023-02-04T07:53:00.322Z,41.02
2023-02-04T07:55:27.149Z,41.98
2023-02-04T07:57:54.263Z,41.32
2023-02-04T08:00:21.400Z,41.54
2023-02-04T08:02:48.509Z,41.86
2023-02-04T08:05:15.586Z,41.25
2023-02-04T08:07:42.674Z,41.98
2023-02-04T08:10:10.594Z,41.17
2023-02-04T08:12:37.972Z,41.86
2023-02-04T08:15:07.537Z,41.94
2023-02-04T08:17:34.597Z,42.87
2023-02-04T08:20:01.579Z,40.98
2023-02-04T08:22:28.344Z,42.10
2023-02-04T08:24:55.169Z,43.03
2023-02-04T08:27:22.000Z,41.90
2023-02-04T08:29:49.254Z,41.82
2023-02-04T08:32:16.266Z,41.42
2023-02-04T08:34:44.111Z,41.41
2023-02-04T08:37:11.031Z,41.73
2023-02-04T08:39:38.495Z,41.75
2023-02-04T08:42:05.504Z,42.01
2023-02-04T08:44:32.286Z,42.63
2023-02-04T08:46:59.121Z,41.82
2023-02-04T08:49:25.981Z,42.64
2023-02-04T08:51:52.616Z,43.38
2023-02-04T08:54:19.459Z,44.38
2023-02-04T08:56:48.203Z,43.19
2023-02-04T08:59:14.926Z,43.30
2023-02-04T09:01:41.712Z,43.64
2023-02-04T09:04:08.792Z,42.33
2023-02-04T09:06:35.808Z,43.65
2023-02-04T09:09:02.571Z,43.48
2023-02-04T09:11:29.348Z,43.28
2023-02-04T09:13:57.491Z,42.20
2023-02-04T09:16:24.383Z,43.14
2023-02-04T09:18:51.091Z,42.92
2023-02-04T09:21:17.919Z,42.20
2023-02-04T09:23:46.647Z,42.72
2023-02-04T09:26:13.757Z,41.23
2023-02-04T09:28:40.553Z,42.53
2023-02-04T09:31:07.488Z,40.90
2023-02-04T09:33:35.266Z,42.33
2023-02-04T09:36:02.390Z,43.03
2023-02-04T09:38:30.383Z,42.33
2023-02-04T09:41:04.285Z,42.70
2023-02-04T09:43:35.906Z,43.49
2023-02-04T09:46:03.769Z,43.87
2023-02-04T09:48:31.067Z,45.74
2023-02-04T09:51:05.608Z,47.68
2023-02-04T09:53:33.075Z,47.92
2023-02-04T09:55:59.853Z,48.17
2023-02-04T09:58:31.429Z,46.79
2023-02-04T10:01:01.813Z,48.45
2023-02-04T10:03:28.808Z,47.78
2023-02-04T10:05:55.577Z,47.61
2023-02-04T10:08:29.505Z,47.53
2023-02-04T10:10:58.075Z,47.43
2023-02-04T10:13:33.018Z,47.62
2023-02-04T10:16:01.521Z,47.62
2023-02-04T10:18:34.018Z,47.36
2023-02-04T10:21:15.745Z,47.13
2023-02-04T10:23:44.646Z,47.37
2023-02-04T10:26:13.191Z,47.21
2023-02-04T10:28:40.686Z,47.30
2023-02-04T10:31:31.581Z,47.21
2023-02-04T10:34:04.423Z,47.19
2023-02-04T10:36:31.368Z,46.89
2023-02-04T10:39:10.983Z,48.03
2023-02-04T10:41:40.088Z,48.02
2023-02-04T10:44:12.953Z,48.42
2023-02-04T10:46:40.217Z,50.20
2023-02-04T10:49:22.667Z,48.89
2023-02-04T10:51:50.956Z,49.80
2023-02-04T10:54:32.447Z,50.33
2023-02-04T10:57:21.685Z,49.65
2023-02-04T10:59:51.950Z,50.09
2023-02-04T11:02:45.387Z,49.89
2023-02-04T11:05:16.614Z,50.06
2023-02-04T11:07:44.994Z,49.63
2023-02-04T11:10:18.364Z,50.51
2023-02-04T11:13:06.104Z,48.80
2023-02-04T11:15:41.134Z,49.84
2023-02-04T11:18:30.135Z,48.09
2023-02-04T11:20:59.341Z,47.64
2023-02-04T11:23:26.064Z,48.50
2023-02-04T11:26:08.107Z,48.14
2023-02-04T11:28:50.162Z,47.82
2023-02-04T11:31:20.850Z,47.30
2023-02-04T11:33:49.638Z,46.22
2023-02-04T11:36:17.593Z,48.09
2023-02-04T11:38:49.908Z,47.69
2023-02-04T11:41:23.710Z,47.14
2023-02-04T11:43:53.056Z,47.32
2023-02-04T11:46:20.560Z,47.68
2023-02-04T11:48:53.675Z,47.63
2023-02-04T11:51:26.426Z,48.05
2023-02-04T11:53:53.292Z,47.66
2023-02-04T11:56:21.675Z,47.85
2023-02-04T11:58:50.257Z,47.58
2023-02-04T12:01:22.188Z,47.56
2023-02-04T12:03:51.220Z,48.21
2023-02-04T12:06:26.679Z,47.91
2023-02-04T12:09:24.137Z,48.88
2023-02-04T12:11:56.801Z,49.98
2023-02-04T12:14:32.395Z,48.97
2023-02-04T12:16:59.784Z,49.30
2023-02-04T12:19:27.807Z,49.11
2023-02-04T12:21:55.284Z,49.53
2023-02-04T12:24:22.072Z,50.09
2023-02-04T12:26:48.983Z,50.52
2023-02-04T12:29:15.781Z,49.62
2023-02-04T12:31:42.505Z,49.66
2023-02-04T12:34:09.553Z,51.44
2023-02-04T12:36:36.305Z,51.90
2023-02-04T12:39:03.689Z,52.01
2023-02-04T12:41:30.596Z,50.43
2023-02-04T12:43:57.280Z,50.68
2023-02-04T12:46:24.254Z,53.26
2023-02-04T12:48:51.817Z,52.12
2023-02-04T12:51:18.845Z,53.13
2023-02-04T12:53:45.730Z,49.04
2023-02-04T12:56:12.530Z,48.62
2023-02-04T12:58:39.270Z,47.68
2023-02-04T13:01:06.632Z,47.20
2023-02-04T13:03:33.562Z,47.68
2023-02-04T13:06:00.482Z,47.28
2023-02-04T13:08:27.238Z,47.69
2023-02-04T13:10:54.280Z,47.40
2023-02-04T13:13:22.551Z,47.77
2023-02-04T13:15:49.429Z,48.15
2023-02-04T13:18:17.462Z,47.84
2023-02-04T13:20:46.035Z,49.17
2023-02-04T13:23:14.222Z,48.00
2023-02-04T13:25:41.180Z,48.22
2023-02-04T13:28:08.011Z,49.01
2023-02-04T13:30:34.913Z,48.88
2023-02-04T13:33:02.213Z,48.33
2023-02-04T13:35:29.049Z,47.93
2023-02-04T13:37:56.620Z,47.82
2023-02-04T13:40:23.590Z,48.70
2023-02-04T13:42:50.512Z,48.60
2023-02-04T13:45:19.111Z,48.87
2023-02-04T13:47:48.013Z,48.57
2023-02-04T13:50:16.615Z,48.48
2023-02-04T13:52:43.475Z,48.76
2023-02-04T13:55:10.700Z,48.80
2023-02-04T13:57:38.031Z,47.21
2023-02-04T14:00:07.070Z,48.27
2023-02-04T14:02:39.495Z,48.82
2023-02-04T14:05:06.626Z,48.82
2023-02-04T14:07:34.126Z,48.71
2023-02-04T14:10:01.048Z,48.37
2023-02-04T14:12:27.761Z,49.16
2023-02-04T14:14:54.861Z,48.96
2023-02-04T14:17:21.694Z,48.25
2023-02-04T14:19:48.483Z,48.25
2023-02-04T14:22:15.318Z,47.78
2023-02-04T14:24:43.450Z,46.91
2023-02-04T14:27:11.258Z,47.61
2023-02-04T14:29:38.124Z,47.67
2023-02-04T14:32:05.118Z,47.99
2023-02-04T14:34:32.062Z,48.15
2023-02-04T14:36:59.856Z,49.01
2023-02-04T14:39:26.774Z,47.92
2023-02-04T14:41:53.605Z,48.86
2023-02-04T14:44:23.498Z,48.33
2023-02-04T14:46:50.453Z,48.34
2023-02-04T14:49:17.772Z,48.96
2023-02-04T14:51:44.606Z,47.77
2023-02-04T14:54:11.387Z,48.36
2023-02-04T14:56:38.502Z,48.18
2023-02-04T14:59:05.803Z,49.21
2023-02-04T15:01:32.542Z,47.85
2023-02-04T15:03:59.548Z,47.30
2023-02-04T15:06:26.694Z,48.16
2023-02-04T15:08:53.503Z,47.26
2023-02-04T15:11:20.588Z,47.13
2023-02-04T15:13:47.312Z,47.48
2023-02-04T15:16:15.223Z,46.87
2023-02-04T15:18:42.457Z,46.24
2023-02-04T15:21:09.724Z,45.90
2023-02-04T15:23:55.140Z,45.96
2023-02-04T15:26:22.455Z,46.14
2023-02-04T15:29:08.117Z,46.28
2023-02-04T15:32:31.187Z,46.82
2023-02-04T15:34:57.986Z,46.33
2023-02-04T15:37:24.746Z,45.77
2023-02-04T15:39:51.646Z,46.17
2023-02-04T15:42:18.479Z,46.95
2023-02-04T15:44:45.233Z,47.47
2023-02-04T15:47:11.928Z,47.28
2023-02-04T15:49:38.832Z,47.22
2023-02-04T15:52:08.893Z,47.05
2023-02-04T15:54:37.944Z,46.88
2023-02-04T15:57:04.676Z,46.79
2023-02-04T15:59:31.609Z,46.04
2023-02-04T16:01:58.476Z,45.90
2023-02-04T16:04:25.393Z,46.05
2023-02-04T16:06:58.543Z,45.50
2023-02-04T16:09:26.224Z,46.28
2023-02-04T16:11:52.960Z,45.51
2023-02-04T16:14:19.929Z,46.14
2023-02-04T16:16:46.729Z,44.99
2023-02-04T16:19:13.486Z,45.70
2023-02-04T16:21:40.313Z,45.55
2023-02-04T16:24:07.555Z,45.31
2023-02-04T16:26:34.270Z,44.74
2023-02-04T16:29:01.107Z,44.02
2023-02-04T16:31:28.033Z,43.30
2023-02-04T16:33:54.984Z,44.49
2023-02-04T16:36:22.672Z,44.33
2023-02-04T16:38:49.672Z,44.25
2023-02-04T16:41:16.488Z,44.28
2023-02-04T16:43:43.398Z,44.07
2023-02-04T16:46:12.293Z,44.06
2023-02-04T16:48:39.375Z,44.34
2023-02-04T16:51:06.140Z,45.99
2023-02-04T16:53:33.137Z,45.45
2023-02-04T16:55:59.924Z,44.62
2023-02-04T16:58:26.750Z,45.06
2023-02-04T17:00:54.675Z,45.37
2023-02-04T17:03:21.560Z,44.42
2023-02-04T17:05:48.442Z,44.06
2023-02-04T17:08:16.766Z,45.31
2023-02-04T17:11:02.226Z,44.09
2023-02-04T17:13:29.244Z,43.63
2023-02-04T17:16:00.759Z,44.28
2023-02-04T17:18:31.997Z,44.71
2023-02-04T17:21:00.195Z,44.54
2023-02-04T17:23:28.416Z,45.09
2023-02-04T17:25:55.368Z,44.97
2023-02-04T17:28:22.190Z,44.98
2023-02-04T17:30:49.214Z,44.77
2023-02-04T17:33:15.919Z,45.03
2023-02-04T17:35:42.777Z,44.45
2023-02-04T17:38:09.619Z,45.16
2023-02-04T17:40:37.647Z,46.52
2023-02-04T17:43:04.939Z,47.21
2023-02-04T17:45:32.117Z,45.67
2023-02-04T17:47:59.064Z,45.48
2023-02-04T17:50:26.075Z,45.29
2023-02-04T17:52:52.855Z,46.19
2023-02-04T17:55:30.843Z,45.79
2023-02-04T17:58:25.971Z,45.40
2023-02-04T18:00:55.440Z,45.27
2023-02-04T18:03:25.097Z,44.91
2023-02-04T18:05:56.433Z,44.84
2023-02-04T18:08:31.748Z,44.51
2023-02-04T18:10:58.798Z,44.66
2023-02-04T18:13:30.290Z,44.75
2023-02-04T18:15:59.551Z,44.37
2023-02-04T18:18:36.061Z,44.54
2023-02-04T18:21:19.094Z,45.86
2023-02-04T18:23:46.423Z,44.81
2023-02-04T18:26:17.804Z,45.06
2023-02-04T18:28:47.797Z,45.17
2023-02-04T18:31:41.077Z,45.46
2023-02-04T18:34:21.205Z,44.75
2023-02-04T18:36:48.678Z,44.75
2023-02-04T18:39:20.896Z,45.61
2023-02-04T18:41:49.638Z,49.17
2023-02-04T18:44:31.608Z,44.56
2023-02-04T18:46:58.868Z,44.24
2023-02-04T18:49:32.684Z,43.74
2023-02-04T18:52:06.571Z,44.42
2023-02-04T18:54:38.736Z,44.68
2023-02-04T18:57:17.604Z,44.90
2023-02-04T18:59:44.438Z,44.43
2023-02-04T19:02:37.006Z,43.60
2023-02-04T19:05:27.923Z,43.61
2023-02-04T19:08:06.863Z,43.33
2023-02-04T19:10:37.424Z,42.81
2023-02-04T19:13:40.725Z,43.43
2023-02-04T19:16:17.103Z,43.63
2023-02-04T19:18:44.538Z,43.67
2023-02-04T19:21:22.189Z,43.79
2023-02-04T19:23:50.850Z,43.76
2023-02-04T19:26:40.508Z,44.00
2023-02-04T19:29:22.397Z,45.54
2023-02-04T19:31:52.282Z,46.63
2023-02-04T19:34:27.565Z,48.99
2023-02-04T19:36:55.541Z,48.99
2023-02-04T19:39:40.255Z,48.06
2023-02-04T19:42:25.707Z,47.09
2023-02-04T19:44:52.934Z,47.01
2023-02-04T19:47:56.599Z,47.72
2023-02-04T19:50:29.935Z,47.98
2023-02-04T19:53:01.292Z,48.47
2023-02-04T19:55:43.423Z,48.37
2023-02-04T19:58:17.321Z,48.04
2023-02-04T20:00:57.071Z,49.15
2023-02-04T20:03:39.253Z,47.50
2023-02-04T20:06:43.934Z,48.48
2023-02-04T20:09:25.167Z,48.16
2023-02-04T20:11:57.045Z,48.12
2023-02-04T20:14:53.149Z,48.32
2023-02-04T20:17:26.542Z,48.57
2023-02-04T20:19:53.444Z,48.93
2023-02-04T20:22:21.007Z,49.62
2023-02-04T20:24:50.650Z,55.86
2023-02-04T20:27:28.165Z,51.05
2023-02-04T20:30:08.630Z,52.29
2023-02-04T20:32:45.330Z,51.82
2023-02-04T20:35:12.692Z,51.85
2023-02-04T20:37:43.801Z,51.65
2023-02-04T20:40:22.619Z,51.12
2023-02-04T20:42:54.792Z,52.06
2023-02-04T20:45:28.960Z,52.58
2023-02-04T20:48:13.273Z,52.08
2023-02-04T20:50:52.154Z,52.39
2023-02-04T20:53:37.207Z,52.50
2023-02-04T20:56:27.118Z,50.56
2023-02-04T20:58:57.691Z,48.96
2023-02-04T21:01:33.839Z,49.41
2023-02-04T21:04:25.889Z,49.48
2023-02-04T21:06:55.755Z,48.86
2023-02-04T21:09:26.316Z,48.45
2023-02-04T21:11:54.911Z,48.16
2023-02-04T21:14:22.884Z,48.14
2023-02-04T21:16:50.864Z,47.72
2023-02-04T21:19:17.636Z,46.91
2023-02-04T21:21:44.513Z,46.68
2023-02-04T21:24:11.336Z,46.72
2023-02-04T21:26:38.284Z,47.78
2023-02-04T21:29:05.370Z,47.19
2023-02-04T21:31:33.224Z,47.66
2023-02-04T21:34:00.094Z,47.64
2023-02-04T21:36:30.129Z,46.55
2023-02-04T21:38:57.025Z,47.01
2023-02-04T21:41:24.268Z,47.19
2023-02-04T21:43:51.411Z,46.92
2023-02-04T21:46:19.158Z,46.45
2023-02-04T21:48:46.299Z,46.11
2023-02-04T21:51:14.753Z,46.57
2023-02-04T21:53:42.340Z,46.51
2023-02-04T21:56:09.469Z,45.87
2023-02-04T21:58:36.833Z,46.36
2023-02-04T22:01:03.743Z,46.42
2023-02-04T22:03:30.551Z,47.55
2023-02-04T22:05:57.430Z,51.42
2023-02-04T22:08:24.398Z,48.66
2023-02-04T22:10:51.177Z,46.97
2023-02-04T22:13:17.929Z,46.88
2023-02-04T22:15:44.834Z,45.96
2023-02-04T22:18:12.131Z,46.23
2023-02-04T22:20:39.585Z,46.39
2023-02-04T22:23:06.627Z,45.54
2023-02-04T22:25:33.807Z,45.58
2023-02-04T22:28:00.654Z,45.57
2023-02-04T22:30:28.645Z,45.57
2023-02-04T22:32:56.601Z,46.65
2023-02-04T22:35:23.427Z,46.90
2023-02-04T22:37:50.154Z,47.36
2023-02-04T22:40:17.238Z,47.60
2023-02-04T22:42:43.884Z,47.21
2023-02-04T22:45:10.895Z,46.95
2023-02-04T22:47:37.816Z,46.62
2023-02-04T22:50:05.394Z,46.36
2023-02-04T22:52:32.249Z,45.99
2023-02-04T22:54:58.968Z,45.79
2023-02-04T22:57:25.818Z,45.78
2023-02-04T22:59:52.501Z,45.61
2023-02-04T23:02:19.282Z,45.77
2023-02-04T23:04:46.338Z,45.48
2023-02-04T23:07:13.756Z,45.76
2023-02-04T23:09:40.534Z,46.01
2023-02-04T23:12:13.213Z,45.83
2023-02-04T23:14:45.802Z,45.82
2023-02-04T23:17:13.554Z,46.35
2023-02-04T23:19:40.566Z,46.08
2023-02-04T23:22:09.146Z,47.10
2023-02-04T23:24:36.435Z,46.10
2023-02-04T23:27:04.536Z,46.01
2023-02-04T23:29:32.842Z,46.78
2023-02-04T23:31:59.617Z,47.95
2023-02-04T23:34:26.314Z,49.10
2023-02-04T23:36:53.221Z,49.04
2023-02-04T23:39:20.768Z,49.55
2023-02-04T23:41:51.084Z,49.01
2023-02-04T23:44:18.221Z,50.29
2023-02-04T23:46:45.213Z,49.64
2023-02-04T23:49:12.326Z,49.71
2023-02-04T23:51:39.681Z,50.79
2023-02-04T23:54:07.237Z,50.71
2023-02-04T23:56:34.447Z,51.14
2023-02-04T23:59:01.463Z,53.77
